Chinandega, Nicaragua

11:53 AM CST on August 26, 2016 (GMT -0600)
Chinandega | | Change Station

Elev 243 ft 12.62 °N, 87.12 °W | Updated 7 minutes ago

Scattered Clouds
Scattered Clouds
91.8 °F
Feels Like 114 °F
N
0.0
Wind Variable Wind from WNW

Today
High -- | Low -- °F
--% Chance of Precip.
Yesterday
High -- | Low -- °F
Precip. -- in
Pressure 29.89 in
Visibility 6.2 miles
Clouds Scattered Clouds 2500 ft
Heat Index 114 °F
Dew Point 82 °F
Humidity 73%
Rainfall 0.69 in
Snow Depth Not available.
5:37 AM 6:02 PM
Waning Crescent, 32% visible
METAR MNCH 261700Z 36004KT 9999 SCT025TCU 31/25 Q1012 TCU/N/NE/SW
Pressure 29.89 in
Visibility 6.2 miles
Clouds Scattered Clouds 2500 ft
Heat Index 114 °F
Dew Point 82 °F
Humidity 73%
Rainfall 0.69 in
Snow Depth Not available.
5:37 AM 6:02 PM
Waning Crescent, 32% visible
METAR MNCH 261700Z 36004KT 9999 SCT025TCU 31/25 Q1012 TCU/N/NE/SW

10-Day Weather Forecast

No radar image for this location.
×

Almanac

Astronomy

Aug. 26, 2016 Rise Set
Actual Time
Civil Twilight
Nautical Twilight
Astronomical Twilight
Moon
Length of Visible Light
Length of Day
Tomorrow will be .
, % of the Moon is Illuminated

Today's Extremes

Country Highs Country Lows

Community

WunderPhotos

Upload Photos

1,935,152 photos uploaded!

WunderBlog® & News

Nearby

Air Quality

  Air Quality AQ Index Pollutant
Not available.

Snow Depth

Station Depth Elevation

Earthquake Activity

City Distance Mag. Time & Date
Minimum magnitude displayed is 2.5.

Coastal Water Temperatures

Place Temperature

Stations

Nearby Weather Stations

Station Location Temp. Windchill Dew Point Humidity Wind Precip. Elev Updated Type